Maria Noelle — WDD9564 — position and weather

sailwx.info

Track history (hours):
 
Tides and Currents Weather Stations Pressure Air Temp Water Temp Dewpoint Dewpoint Depression Visibility Wind Speed Wind Dir Waves Ship Positions

Maria Noelle

Owner: MUROS INC, POINT PLEASANT, NJ. More information available from US FCC via Universal Licensing System and Coast Guard Vessel Documentation Center.

Last reported at 2017-May-24 04:50 UTC. Time now 2017-May-27 13:47 UTC.
Position N 39°58' W 073°03'.

Length 26 m.

Type: Fishing. MMSI: 367313170.

Date/timePositionNaut miles runAvg speedWind from/ knotsBaromVisibWave heightAir tempDewpointWater temp
2017-May-24 04:50N 39°58' W 073°03'2 4.8
2017-May-24 04:30N 39°58' W 073°05'38 2.7
2017-May-23 14:13N 40°06' W 073°54'6 7.7
2017-May-23 13:30N 40°06' W 074°01'  
2017-May-17 20:20N 40°06' W 074°02'0 0.0
2017-May-17 15:55N 40°06' W 074°02'0 0.0
2017-May-17 15:28N 40°06' W 074°02'0 0.0
2017-May-17 14:55N 40°06' W 074°02'2 1.7
2017-May-17 14:00N 40°06' W 074°00'1 1.2
2017-May-17 13:28N 40°06' W 073°59'5 7.7
2017-May-17 12:46N 40°05' W 073°53'2 7.7
2017-May-17 12:28N 40°04' W 073°50'4 7.9
2017-May-17 12:00N 40°03' W 073°45'4 7.9
2017-May-17 11:28N 40°02' W 073°39'4 7.8
2017-May-17 10:59N 40°02' W 073°35'4 7.7
2017-May-17 10:30N 40°01' W 073°30'5 7.6
2017-May-17 09:49N 39°60' W 073°23'3 7.4
2017-May-17 09:28N 39°59' W 073°20'  
Track history (hours):
 
Tides and Currents Weather Stations Pressure Air Temp Water Temp Dewpoint Dewpoint Depression Visibility Wind Speed Wind Dir Waves Ship Positions

Maria Noelle

Owner: MUROS INC, POINT PLEASANT, NJ. More information available from US FCC via Universal Licensing System and Coast Guard Vessel Documentation Center.

Last reported at 2017-May-24 04:50 UTC. Time now 2017-May-27 13:47 UTC.
Position N 39°58' W 073°03'.

Length 26 m.

Type: Fishing. MMSI: 367313170.

Date/timePositionNaut miles runAvg speedWind from/ knotsBaromVisibWave heightAir tempDewpointWater temp
2017-May-24 04:50N 39°58' W 073°03'2 4.8
2017-May-24 04:30N 39°58' W 073°05'38 2.7
2017-May-23 14:13N 40°06' W 073°54'6 7.7
2017-May-23 13:30N 40°06' W 074°01'  
2017-May-17 20:20N 40°06' W 074°02'0 0.0
2017-May-17 15:55N 40°06' W 074°02'0 0.0
2017-May-17 15:28N 40°06' W 074°02'0 0.0
2017-May-17 14:55N 40°06' W 074°02'2 1.7
2017-May-17 14:00N 40°06' W 074°00'1 1.2
2017-May-17 13:28N 40°06' W 073°59'5 7.7
2017-May-17 12:46N 40°05' W 073°53'2 7.7
2017-May-17 12:28N 40°04' W 073°50'4 7.9
2017-May-17 12:00N 40°03' W 073°45'4 7.9
2017-May-17 11:28N 40°02' W 073°39'4 7.8
2017-May-17 10:59N 40°02' W 073°35'4 7.7
2017-May-17 10:30N 40°01' W 073°30'5 7.6
2017-May-17 09:49N 39°60' W 073°23'3 7.4
2017-May-17 09:28N 39°59' W 073°20'  

Dump ship's entire track history